Time;durP1;ratioP1;P1;durP2;ratioP2;P2;SDS_P1;SDS_P2;PMS_P1;PMS_P2;Temp;Humidity;BMP_temperature;BMP_pressure;BME280_temperature;BME280_humidity;BME280_pressure;Samples;Min_cycle;Max_cycle;Signal;HPM_P1;HPM_P2
2021/04/10 00:00:24;;;;;;;6.25;3.22;;;10.60;61.10;;;;;;6215656;23;20467;-53
2021/04/10 00:02:50;;;;;;;5.05;2.90;;;10.60;61.10;;;;;;6215788;23;20004;-53
2021/04/10 00:05:20;;;;;;;3.72;3.00;;;10.60;61.10;;;;;;6215860;23;20004;-53
2021/04/10 00:07:45;;;;;;;5.65;3.22;;;10.60;61.20;;;;;;6215568;23;20334;-53
2021/04/10 00:10:11;;;;;;;5.43;2.85;;;10.60;61.20;;;;;;6215330;23;20032;-53
2021/04/10 00:12:37;;;;;;;6.03;2.90;;;10.60;61.20;;;;;;6215602;23;20083;-53
2021/04/10 00:15:06;;;;;;;5.28;2.83;;;10.50;61.30;;;;;;6215343;23;20090;-54
2021/04/10 00:17:32;;;;;;;12.57;3.22;;;10.60;61.30;;;;;;6215502;23;20392;-54
2021/04/10 00:19:57;;;;;;;5.45;3.22;;;10.50;61.40;;;;;;6214380;23;20013;-54
2021/04/10 00:22:23;;;;;;;6.20;2.90;;;10.60;61.50;;;;;;6215387;23;20024;-53
2021/04/10 00:24:49;;;;;;;5.55;2.90;;;10.50;61.50;;;;;;6215621;23;20005;-53
2021/04/10 00:27:14;;;;;;;7.20;2.72;;;10.50;61.60;;;;;;6215463;23;20009;-54
2021/04/10 00:29:40;;;;;;;5.50;2.40;;;10.50;61.50;;;;;;6215100;23;20001;-54
2021/04/10 00:32:06;;;;;;;8.30;3.58;;;10.50;61.60;;;;;;6215346;23;20008;-54
2021/04/10 00:34:31;;;;;;;5.90;3.08;;;10.50;61.60;;;;;;6215447;23;20021;-54
2021/04/10 00:36:57;;;;;;;6.53;2.60;;;10.50;61.70;;;;;;6215687;23;20289;-53
2021/04/10 00:39:22;;;;;;;13.30;3.40;;;10.50;61.70;;;;;;6215741;23;19997;-53
2021/04/10 00:41:48;;;;;;;11.43;3.08;;;10.50;61.70;;;;;;6217564;23;20284;-54
2021/04/10 00:44:13;;;;;;;7.70;2.40;;;10.50;61.70;;;;;;6217412;23;20031;-53
2021/04/10 00:46:39;;;;;;;10.60;2.72;;;10.50;61.80;;;;;;6217326;23;20380;-53
2021/04/10 00:49:05;;;;;;;8.27;2.42;;;10.50;61.90;;;;;;6216457;23;20350;-53
2021/04/10 00:51:30;;;;;;;6.82;2.60;;;10.50;61.90;;;;;;6217333;23;20008;-53
2021/04/10 00:53:56;;;;;;;6.20;3.22;;;10.50;61.90;;;;;;6217138;23;20394;-54
2021/04/10 00:56:21;;;;;;;14.35;3.47;;;10.50;62.00;;;;;;6216948;23;20396;-53
2021/04/10 00:58:47;;;;;;;7.90;2.92;;;10.50;62.10;;;;;;6216837;23;20100;-53
2021/04/10 01:01:13;;;;;;;3.42;2.30;;;10.40;61.90;;;;;;6216969;23;20377;-54
2021/04/10 01:03:38;;;;;;;6.70;2.40;;;10.50;62.10;;;;;;6216617;23;20001;-54
2021/04/10 01:06:04;;;;;;;4.40;2.78;;;10.50;62.20;;;;;;6217296;23;20008;-54
2021/04/10 01:08:30;;;;;;;4.40;2.40;;;10.40;62.20;;;;;;6217039;23;20284;-54
2021/04/10 01:11:04;;;;;;;5.28;2.53;;;10.40;62.10;;;;;;6217002;23;20020;-54
2021/04/10 01:13:48;;;;;;;5.18;2.60;;;10.50;62.30;;;;;;6216961;23;20000;-54
2021/04/10 01:16:29;;;;;;;4.85;2.70;;;10.40;62.30;;;;;;6216845;23;20098;-53
2021/04/10 01:19:20;;;;;;;6.72;2.53;;;10.40;62.30;;;;;;6216335;23;20020;-54
2021/04/10 01:21:56;;;;;;;5.97;2.95;;;10.40;62.30;;;;;;6216881;23;20015;-54
2021/04/10 01:24:31;;;;;;;8.50;3.33;;;10.40;62.30;;;;;;6216692;23;20414;-53
2021/04/10 01:27:02;;;;;;;6.63;2.75;;;10.50;62.50;;;;;;6217330;23;20004;-54
2021/04/10 01:29:32;;;;;;;2.83;2.03;;;10.40;62.40;;;;;;6216610;23;20000;-54
2021/04/10 01:31:59;;;;;;;7.25;3.00;;;10.40;62.50;;;;;;6217081;23;20000;-54
2021/04/10 01:34:33;;;;;;;7.25;2.75;;;10.50;62.50;;;;;;6216380;23;20418;-54
2021/04/10 01:37:06;;;;;;;7.55;2.90;;;10.40;62.50;;;;;;6216445;23;20423;-53
2021/04/10 01:39:34;;;;;;;5.63;2.80;;;10.40;62.50;;;;;;6215868;23;19996;-54
2021/04/10 01:42:01;;;;;;;6.65;3.05;;;10.40;62.50;;;;;;6216739;23;20027;-53
2021/04/10 01:44:27;;;;;;;7.88;2.55;;;10.40;62.50;;;;;;6216244;23;20084;-53
2021/04/10 01:46:54;;;;;;;11.23;2.80;;;10.50;62.50;;;;;;6216438;23;20008;-53
2021/04/10 01:49:19;;;;;;;5.45;2.60;;;10.40;62.50;;;;;;6216278;23;20005;-53
2021/04/10 01:51:47;;;;;;;4.65;2.28;;;10.40;62.50;;;;;;6217138;23;20009;-54
2021/04/10 01:54:14;;;;;;;5.07;2.47;;;10.50;62.60;;;;;;6216771;23;20000;-54
2021/04/10 01:56:44;;;;;;;4.80;2.25;;;10.50;62.60;;;;;;6216291;23;20419;-54
2021/04/10 01:59:12;;;;;;;4.20;2.22;;;10.40;62.60;;;;;;6216409;23;20287;-54
2021/04/10 02:01:40;;;;;;;6.82;2.65;;;10.40;62.60;;;;;;6215911;23;20054;-53
2021/04/10 02:04:08;;;;;;;5.47;2.58;;;10.50;62.70;;;;;;6216377;23;20351;-54
2021/04/10 02:06:34;;;;;;;4.63;2.35;;;10.50;62.60;;;;;;6216643;23;20005;-53
2021/04/10 02:09:01;;;;;;;9.45;2.30;;;10.50;63.40;;;;;;6216143;23;20008;-53
2021/04/10 02:11:27;;;;;;;6.45;2.65;;;10.40;62.50;;;;;;6216307;23;20085;-53
2021/04/10 02:13:53;;;;;;;4.55;2.45;;;10.50;62.60;;;;;;6216649;23;20171;-53
2021/04/10 02:16:21;;;;;;;5.00;2.60;;;10.50;62.60;;;;;;6215815;23;20012;-53
2021/04/10 02:18:48;;;;;;;6.78;2.38;;;10.50;62.60;;;;;;6215731;23;20010;-54
2021/04/10 02:21:14;;;;;;;8.82;2.40;;;10.40;62.50;;;;;;6216501;23;20078;-54
2021/04/10 02:23:41;;;;;;;5.70;2.70;;;10.40;62.60;;;;;;6216611;23;20277;-53
2021/04/10 02:26:08;;;;;;;4.82;2.42;;;10.50;62.60;;;;;;6216414;23;20012;-54
2021/04/10 02:28:34;;;;;;;3.75;2.83;;;10.40;62.50;;;;;;6215404;23;19996;-53
2021/04/10 02:31:01;;;;;;;8.98;2.55;;;10.50;62.60;;;;;;6216561;23;20022;-54
2021/04/10 02:33:38;;;;;;;4.72;2.55;;;10.40;62.60;;;;;;6216443;23;19996;-54
2021/04/10 02:36:04;;;;;;;4.28;2.15;;;10.50;62.60;;;;;;6216270;23;20047;-53
2021/04/10 02:38:33;;;;;;;7.78;2.50;;;10.50;62.70;;;;;;6215960;23;20001;-54
2021/04/10 02:41:09;;;;;;;12.85;2.28;;;10.50;62.70;;;;;;6216242;23;20009;-53
2021/04/10 02:43:39;;;;;;;6.25;2.88;;;10.50;62.70;;;;;;6216055;23;20392;-54
2021/04/10 02:46:06;;;;;;;6.15;2.63;;;10.50;62.70;;;;;;6216103;23;20005;-54
2021/04/10 02:48:44;;;;;;;6.85;2.83;;;10.50;62.70;;;;;;6215966;23;19996;-53
2021/04/10 02:51:12;;;;;;;3.17;2.42;;;10.50;62.70;;;;;;6215831;23;20007;-54
2021/04/10 02:53:39;;;;;;;4.25;2.33;;;10.50;62.70;;;;;;6211497;23;20086;-53
2021/04/10 02:56:07;;;;;;;9.50;3.05;;;10.50;62.80;;;;;;6215935;23;20021;-53
2021/04/10 02:58:33;;;;;;;9.98;3.17;;;10.50;62.80;;;;;;6215294;23;19997;-54
2021/04/10 03:00:59;;;;;;;5.25;3.00;;;10.50;62.80;;;;;;6214185;23;20011;-54
2021/04/10 03:03:27;;;;;;;4.82;2.20;;;10.40;62.70;;;;;;6215860;23;20087;-53
2021/04/10 03:05:54;;;;;;;4.93;2.50;;;10.50;62.80;;;;;;6216211;23;20005;-53
2021/04/10 03:08:24;;;;;;;6.70;2.60;;;10.50;62.80;;;;;;6215297;23;20281;-54
2021/04/10 03:10:52;;;;;;;7.17;3.00;;;10.50;62.80;;;;;;6215718;23;20448;-54
2021/04/10 03:13:19;;;;;;;4.70;2.75;;;10.40;62.70;;;;;;6215882;23;20100;-54
2021/04/10 03:15:49;;;;;;;7.65;2.65;;;10.50;62.80;;;;;;6215667;23;20050;-54
2021/04/10 03:18:16;;;;;;;5.45;3.17;;;10.40;63.00;;;;;;6215929;23;20029;-54
2021/04/10 03:20:42;;;;;;;6.25;2.70;;;10.40;62.80;;;;;;6215764;23;20012;-54
2021/04/10 03:23:08;;;;;;;6.97;3.83;;;10.40;62.90;;;;;;6215738;23;20066;-53
2021/04/10 03:25:33;;;;;;;6.35;3.45;;;10.40;63.60;;;;;;6215751;23;20274;-54
2021/04/10 03:28:00;;;;;;;6.28;3.15;;;10.40;62.80;;;;;;6215496;23;20008;-53
2021/04/10 03:30:26;;;;;;;7.57;3.30;;;10.40;62.90;;;;;;6215551;23;20000;-54
2021/04/10 03:32:52;;;;;;;8.68;3.13;;;10.40;63.00;;;;;;6215961;23;20416;-54
2021/04/10 03:35:18;;;;;;;9.07;2.90;;;10.40;63.00;;;;;;6215587;23;20435;-53
2021/04/10 03:37:45;;;;;;;6.68;3.00;;;10.40;63.00;;;;;;6215218;23;20436;-53
2021/04/10 03:40:11;;;;;;;9.60;2.40;;;10.40;63.00;;;;;;6215545;23;20004;-53
2021/04/10 03:42:45;;;;;;;12.43;3.63;;;10.40;63.10;;;;;;6215907;23;20015;-53
2021/04/10 03:45:13;;;;;;;4.63;2.58;;;10.40;63.20;;;;;;6216056;23;20075;-53
2021/04/10 03:47:40;;;;;;;7.78;3.22;;;10.40;63.10;;;;;;6215810;23;20080;-54
2021/04/10 03:50:07;;;;;;;5.90;2.60;;;10.40;63.20;;;;;;6214974;23;20303;-53
2021/04/10 03:52:33;;;;;;;5.70;2.83;;;10.40;63.30;;;;;;6215952;23;20004;-53
2021/04/10 03:54:59;;;;;;;4.70;2.42;;;10.40;63.30;;;;;;6215799;23;20080;-54
2021/04/10 03:57:26;;;;;;;9.32;3.22;;;10.30;63.30;;;;;;6215876;23;20353;-54
2021/04/10 03:59:51;;;;;;;4.50;2.40;;;10.30;63.30;;;;;;6214986;23;20400;-53
2021/04/10 04:02:17;;;;;;;7.35;2.80;;;10.30;63.40;;;;;;6215850;23;20047;-54
2021/04/10 04:04:43;;;;;;;4.50;2.53;;;10.30;63.40;;;;;;6215503;23;20376;-53
2021/04/10 04:07:08;;;;;;;7.25;2.90;;;10.30;63.50;;;;;;6215435;23;20411;-53
2021/04/10 04:09:35;;;;;;;7.38;2.47;;;10.30;63.50;;;;;;6214685;23;20000;-53
2021/04/10 04:12:01;;;;;;;6.47;2.70;;;10.30;63.50;;;;;;6214455;23;20001;-54
2021/04/10 04:14:27;;;;;;;6.05;2.90;;;10.30;63.60;;;;;;6216397;23;20011;-54
2021/04/10 04:16:52;;;;;;;7.28;2.80;;;10.30;63.60;;;;;;6217720;23;20020;-53
2021/04/10 04:19:18;;;;;;;6.55;3.00;;;10.30;63.70;;;;;;6216902;23;20004;-53
2021/04/10 04:21:44;;;;;;;6.38;2.55;;;10.30;63.80;;;;;;6217945;23;20083;-54
2021/04/10 04:24:10;;;;;;;7.55;2.72;;;10.30;63.80;;;;;;6217215;23;20009;-54
2021/04/10 04:26:35;;;;;;;8.65;2.83;;;10.30;63.90;;;;;;6217486;23;20008;-54
2021/04/10 04:29:01;;;;;;;6.40;2.70;;;10.20;63.80;;;;;;6217111;23;20086;-53
2021/04/10 04:31:27;;;;;;;8.13;2.78;;;10.20;63.90;;;;;;6216632;23;20454;-53
2021/04/10 04:33:52;;;;;;;9.80;2.22;;;10.20;63.90;;;;;;6216345;23;20491;-54
2021/04/10 04:36:18;;;;;;;5.50;2.33;;;10.20;63.90;;;;;;6216080;23;20063;-53
2021/04/10 04:38:43;;;;;;;5.18;3.20;;;10.20;64.00;;;;;;6210494;23;20472;-54
2021/04/10 04:41:09;;;;;;;6.53;2.60;;;10.20;64.00;;;;;;6217338;23;20008;-53
2021/04/10 04:43:35;;;;;;;12.35;2.88;;;10.20;64.10;;;;;;6216935;23;20043;-54
2021/04/10 04:46:00;;;;;;;6.07;2.22;;;10.20;64.10;;;;;;6215325;23;20005;-54
2021/04/10 04:48:26;;;;;;;13.13;3.28;;;10.20;64.20;;;;;;6216330;23;20001;-54
2021/04/10 04:50:52;;;;;;;11.02;3.65;;;10.20;64.20;;;;;;6217481;23;20028;-54
2021/04/10 04:53:17;;;;;;;4.15;2.00;;;10.20;64.20;;;;;;6217120;23;20074;-53
2021/04/10 04:55:43;;;;;;;4.25;2.03;;;10.20;64.20;;;;;;6217069;23;20001;-54
2021/04/10 04:58:08;;;;;;;5.45;1.60;;;10.20;64.40;;;;;;6217335;23;20009;-53
2021/04/10 05:00:34;;;;;;;3.15;1.70;;;10.20;64.40;;;;;;6216658;23;20000;-53
2021/04/10 05:03:00;;;;;;;6.80;1.75;;;10.20;64.40;;;;;;6216951;23;20388;-54
2021/04/10 05:05:25;;;;;;;3.67;1.52;;;10.20;64.40;;;;;;6216582;23;20000;-54
2021/04/10 05:07:51;;;;;;;2.45;1.30;;;10.20;64.50;;;;;;6216418;23;20005;-53
2021/04/10 05:10:17;;;;;;;5.47;1.60;;;10.20;64.50;;;;;;6216109;23;20036;-53
2021/04/10 05:12:42;;;;;;;9.60;1.40;;;10.20;64.40;;;;;;6217094;23;20028;-53
2021/04/10 05:15:08;;;;;;;4.25;1.23;;;10.20;64.50;;;;;;6216510;23;20079;-53
2021/04/10 05:17:34;;;;;;;5.13;1.90;;;10.20;64.50;;;;;;6217184;23;20012;-53
2021/04/10 05:19:59;;;;;;;4.07;1.42;;;10.20;64.60;;;;;;6216076;23;20312;-54
2021/04/10 05:22:25;;;;;;;3.30;1.95;;;10.20;64.60;;;;;;6216649;23;20009;-53
2021/04/10 05:24:51;;;;;;;7.63;1.80;;;10.20;64.60;;;;;;6216487;23;20020;-53
2021/04/10 05:27:16;;;;;;;1.90;1.48;;;10.20;64.60;;;;;;6216837;23;20112;-53
2021/04/10 05:29:42;;;;;;;4.28;1.50;;;10.20;64.60;;;;;;6216603;23;20000;-53
2021/04/10 05:32:07;;;;;;;5.68;1.80;;;10.20;64.70;;;;;;6216920;23;20027;-53
2021/04/10 05:34:33;;;;;;;11.85;2.05;;;10.20;64.60;;;;;;6216794;23;20392;-53
2021/04/10 05:36:59;;;;;;;3.05;1.50;;;10.20;64.80;;;;;;6216946;23;20020;-53
2021/04/10 05:39:24;;;;;;;2.00;1.50;;;10.20;64.70;;;;;;6215946;23;20007;-53
2021/04/10 05:41:50;;;;;;;4.25;1.80;;;10.20;64.80;;;;;;6214250;23;20005;-53
2021/04/10 05:44:15;;;;;;;6.32;1.55;;;10.20;64.80;;;;;;6215411;23;20087;-54
2021/04/10 05:46:41;;;;;;;2.47;1.60;;;10.20;65.50;;;;;;6216848;23;20008;-54
2021/04/10 05:49:06;;;;;;;4.75;1.40;;;10.30;64.90;;;;;;6215950;23;20051;-53
2021/04/10 05:51:32;;;;;;;7.70;1.73;;;10.20;64.80;;;;;;6216544;23;20419;-54
2021/04/10 05:53:58;;;;;;;3.95;1.40;;;10.20;65.00;;;;;;6217121;23;20078;-54
2021/04/10 05:56:23;;;;;;;10.13;1.42;;;10.20;65.10;;;;;;6216570;23;20356;-53
2021/04/10 05:58:49;;;;;;;2.55;1.48;;;10.30;65.10;;;;;;6216020;23;19997;-54
2021/04/10 06:01:14;;;;;;;3.85;1.45;;;10.30;65.00;;;;;;6216039;23;20001;-54
2021/04/10 06:03:40;;;;;;;3.80;1.90;;;10.30;65.10;;;;;;6215732;23;20000;-53
2021/04/10 06:06:06;;;;;;;6.75;1.40;;;10.30;65.10;;;;;;6216015;23;20392;-54
2021/04/10 06:08:32;;;;;;;1.48;0.73;;;10.30;65.10;;;;;;6214968;23;20058;-53
2021/04/10 06:10:58;;;;;;;2.20;1.73;;;10.40;65.10;;;;;;6214713;23;20087;-53
2021/04/10 06:13:24;;;;;;;2.95;1.60;;;10.40;65.90;;;;;;6215874;23;20426;-53
2021/04/10 06:15:50;;;;;;;5.25;1.88;;;10.40;65.10;;;;;;6216199;23;20043;-54
2021/04/10 06:18:15;;;;;;;4.63;1.67;;;10.40;65.00;;;;;;6216042;23;20009;-54
2021/04/10 06:20:41;;;;;;;14.10;1.83;;;10.40;65.10;;;;;;6216293;23;20414;-54
2021/04/10 06:23:07;;;;;;;2.05;1.25;;;10.40;65.10;;;;;;6216531;23;20020;-54
2021/04/10 06:25:32;;;;;;;8.82;1.95;;;10.40;65.10;;;;;;6215830;23;20281;-53
2021/04/10 06:28:03;;;;;;;2.47;1.30;;;10.40;65.00;;;;;;6215773;23;19996;-54
2021/04/10 06:30:28;;;;;;;1.40;1.13;;;10.50;65.10;;;;;;6215267;23;20043;-54
2021/04/10 06:32:54;;;;;;;3.42;1.90;;;10.50;65.30;;;;;;6215757;23;20013;-53
2021/04/10 06:35:19;;;;;;;13.20;1.95;;;10.50;65.30;;;;;;6215909;23;20069;-54
2021/04/10 06:37:45;;;;;;;3.03;1.60;;;10.50;65.20;;;;;;6215394;23;20008;-54
2021/04/10 06:40:11;;;;;;;4.50;1.48;;;10.60;65.00;;;;;;6215922;23;20005;-53
2021/04/10 06:42:36;;;;;;;3.65;1.27;;;10.60;65.00;;;;;;6214258;23;20380;-54
2021/04/10 06:45:03;;;;;;;3.88;1.60;;;10.60;64.90;;;;;;6215132;23;20077;-54
2021/04/10 06:47:33;;;;;;;6.93;2.03;;;10.60;65.00;;;;;;6215306;23;20300;-54
2021/04/10 06:49:59;;;;;;;9.40;2.17;;;10.60;64.80;;;;;;6215213;23;20012;-54
2021/04/10 06:52:25;;;;;;;6.13;2.33;;;10.60;65.10;;;;;;6215752;23;20328;-55
2021/04/10 06:55:04;;;;;;;9.95;2.75;;;10.70;65.30;;;;;;6215981;23;20131;-54
2021/04/10 06:57:38;;;;;;;11.60;3.40;;;10.70;65.00;;;;;;6216228;23;20076;-52
2021/04/10 07:00:06;;;;;;;3.42;2.13;;;10.70;64.90;;;;;;6215255;23;20015;-52
2021/04/10 07:02:34;;;;;;;21.92;3.03;;;10.70;65.00;;;;;;6214812;23;20004;-52
2021/04/10 07:05:00;;;;;;;4.22;1.80;;;10.70;65.40;;;;;;6216264;23;20012;-52
2021/04/10 07:07:26;;;;;;;2.00;1.70;;;10.70;65.40;;;;;;6215823;23;20012;-52
2021/04/10 07:09:53;;;;;;;1.35;1.00;;;10.70;65.40;;;;;;6215854;23;20001;-52
2021/04/10 07:12:20;;;;;;;4.53;1.65;;;10.70;65.20;;;;;;6215361;23;20011;-52
2021/04/10 07:14:45;;;;;;;5.60;1.85;;;10.70;65.00;;;;;;6216128;23;20004;-52
2021/04/10 07:17:15;;;;;;;4.32;2.42;;;10.70;64.60;;;;;;6215642;23;20023;-53
2021/04/10 07:19:41;;;;;;;12.95;2.45;;;10.70;64.50;;;;;;6215560;23;20382;-53
2021/04/10 07:22:15;;;;;;;128.90;25.55;;;10.80;64.50;;;;;;6215594;23;20005;-52
2021/04/10 07:24:51;;;;;;;126.10;29.60;;;10.80;64.30;;;;;;6216016;23;20011;-53
2021/04/10 07:27:22;;;;;;;43.65;10.43;;;10.90;64.50;;;;;;6215684;23;20000;-52
2021/04/10 07:29:53;;;;;;;37.75;6.63;;;10.80;64.40;;;;;;6215730;23;19997;-52
2021/04/10 07:32:33;;;;;;;7.85;3.17;;;10.80;64.50;;;;;;6216005;23;20051;-52
2021/04/10 07:35:07;;;;;;;6.15;2.10;;;10.80;64.50;;;;;;6215603;23;20022;-53
2021/04/10 07:37:48;;;;;;;6.63;1.88;;;10.80;64.40;;;;;;6215496;23;20032;-52
2021/04/10 07:40:22;;;;;;;11.80;2.10;;;10.80;64.40;;;;;;6215666;23;20000;-52
2021/04/10 07:42:47;;;;;;;6.63;1.95;;;10.80;64.50;;;;;;6215911;23;20008;-52
2021/04/10 07:45:33;;;;;;;12.35;2.75;;;10.90;65.20;;;;;;6216217;23;19996;-52
2021/04/10 07:48:10;;;;;;;1.77;1.50;;;10.90;64.30;;;;;;6216171;23;20430;-54
2021/04/10 07:50:37;;;;;;;4.28;1.67;;;10.90;64.30;;;;;;6217719;23;20016;-54
2021/04/10 07:53:24;;;;;;;2.67;1.40;;;10.90;64.60;;;;;;6217889;23;19997;-54
2021/04/10 07:55:51;;;;;;;2.45;1.83;;;11.00;65.20;;;;;;6217811;23;20009;-54
2021/04/10 07:58:33;;;;;;;6.03;2.65;;;11.00;65.00;;;;;;6217274;23;20001;-54
2021/04/10 08:01:01;;;;;;;24.27;8.68;;;11.00;65.00;;;;;;6217845;23;20011;-54
2021/04/10 08:03:38;;;;;;;12.95;4.43;;;11.10;64.80;;;;;;6217768;23;20032;-54
2021/04/10 08:06:07;;;;;;;24.08;5.88;;;11.00;64.50;;;;;;6217487;23;20094;-54
2021/04/10 08:08:33;;;;;;;22.85;4.18;;;11.00;64.40;;;;;;6217198;23;20005;-54
2021/04/10 08:11:05;;;;;;;10.65;2.53;;;11.10;64.50;;;;;;6217551;23;20008;-54
2021/04/10 08:13:32;;;;;;;4.03;1.80;;;11.00;64.40;;;;;;6217705;23;20005;-54
2021/04/10 08:16:12;;;;;;;8.80;2.72;;;11.00;64.30;;;;;;6217675;23;20019;-54
2021/04/10 08:18:59;;;;;;;2.78;1.77;;;11.00;64.40;;;;;;6217263;23;20027;-54
2021/04/10 08:21:31;;;;;;;3.83;1.52;;;11.00;64.40;;;;;;6217535;23;20015;-54
2021/04/10 08:23:56;;;;;;;3.92;2.13;;;11.00;64.30;;;;;;6217260;23;20422;-54
2021/04/10 08:26:23;;;;;;;1.35;1.10;;;11.00;64.30;;;;;;6217534;23;20005;-54
2021/04/10 08:28:49;;;;;;;5.85;1.38;;;11.00;64.20;;;;;;6216935;23;20434;-54
2021/04/10 08:31:15;;;;;;;2.83;1.60;;;11.00;64.20;;;;;;6217338;23;20001;-54
2021/04/10 08:33:41;;;;;;;6.00;1.70;;;11.10;64.10;;;;;;6217429;23;20400;-53
2021/04/10 08:36:11;;;;;;;4.20;1.52;;;11.10;63.70;;;;;;6217528;23;20016;-54
2021/04/10 08:38:39;;;;;;;2.45;1.60;;;11.20;63.70;;;;;;6216855;23;20079;-54
2021/04/10 08:41:06;;;;;;;9.13;1.40;;;11.30;63.90;;;;;;6217098;23;19997;-55
2021/04/10 08:43:36;;;;;;;4.60;2.15;;;11.30;63.90;;;;;;6216983;23;20005;-65
2021/04/10 08:46:04;;;;;;;16.08;4.10;;;11.20;63.90;;;;;;6217301;23;20001;-55
2021/04/10 08:48:31;;;;;;;11.38;2.15;;;11.20;64.00;;;;;;6216788;23;20015;-54
2021/04/10 08:51:01;;;;;;;19.13;7.13;;;11.20;64.50;;;;;;6217028;23;20462;-54
2021/04/10 08:53:29;;;;;;;7.32;3.30;;;11.20;65.00;;;;;;6216980;23;20430;-54
2021/04/10 08:55:56;;;;;;;5.75;2.13;;;11.20;65.00;;;;;;6217435;23;20040;-59
2021/04/10 08:58:31;;;;;;;1.65;1.48;;;11.20;65.50;;;;;;6216078;23;20032;-57
2021/04/10 09:00:59;;;;;;;6.35;1.92;;;11.20;65.00;;;;;;6216402;23;20308;-56
2021/04/10 09:03:47;;;;;;;7.88;1.58;;;11.20;64.90;;;;;;6216706;23;20001;-56
2021/04/10 09:06:33;;;;;;;6.20;1.50;;;11.20;64.60;;;;;;6215362;23;20004;-57
2021/04/10 09:09:11;;;;;;;4.95;1.40;;;11.20;64.60;;;;;;6205613;23;20008;-56
2021/04/10 09:11:38;;;;;;;3.60;2.00;;;11.10;64.50;;;;;;6216709;23;20027;-56
2021/04/10 09:14:04;;;;;;;5.25;1.77;;;11.10;64.40;;;;;;6217214;23;20047;-56
2021/04/10 09:16:37;;;;;;;2.60;1.42;;;11.10;64.40;;;;;;6217200;23;20099;-56
2021/04/10 09:19:12;;;;;;;6.65;1.48;;;11.10;64.50;;;;;;6216652;23;20009;-57
2021/04/10 09:21:45;;;;;;;7.00;1.90;;;11.20;64.60;;;;;;6216723;23;20004;-57
2021/04/10 09:24:29;;;;;;;4.90;2.45;;;11.20;64.50;;;;;;6217206;23;20001;-61
2021/04/10 09:26:55;;;;;;;15.02;5.43;;;11.20;65.20;;;;;;6217089;23;20005;-55
2021/04/10 09:29:20;;;;;;;9.75;2.20;;;11.20;65.40;;;;;;6216690;23;20005;-55
2021/04/10 09:31:51;;;;;;;4.50;1.80;;;11.20;65.10;;;;;;6216847;23;20013;-55
2021/04/10 09:34:35;;;;;;;;;;;11.20;64.90;;;;;;6217300;23;20004;-55
2021/04/10 09:37:00;;;;;;;8.77;1.80;;;11.20;64.90;;;;;;6216646;23;19908;-55
2021/04/10 09:39:51;;;;;;;7.18;2.15;;;11.10;64.90;;;;;;6216298;23;20026;-55
2021/04/10 09:42:52;;;;;;;4.07;1.50;;;11.20;65.00;;;;;;6216314;23;20082;-55
2021/04/10 09:45:25;;;;;;;2.75;1.88;;;11.20;64.90;;;;;;6217014;23;20067;-55
2021/04/10 09:47:57;;;;;;;5.43;1.65;;;11.10;64.80;;;;;;6216624;23;20008;-55
2021/04/10 09:50:23;;;;;;;3.50;1.58;;;11.20;64.80;;;;;;6215864;23;20011;-55
2021/04/10 09:53:00;;;;;;;6.10;2.33;;;11.20;64.80;;;;;;6216372;23;20080;-55
2021/04/10 09:55:28;;;;;;;6.25;1.63;;;11.20;64.80;;;;;;6216569;23;20015;-55
2021/04/10 09:57:59;;;;;;;6.07;2.00;;;11.20;64.70;;;;;;6216295;23;20043;-55
2021/04/10 10:00:31;;;;;;;;;;;11.20;64.80;;;;;;6216838;23;20347;-55
2021/04/10 10:02:58;;;;;;;9.75;1.75;;;11.20;64.80;;;;;;6216080;23;20279;-55
2021/04/10 10:05:30;;;;;;;5.50;1.95;;;11.30;64.80;;;;;;6215799;23;20505;-55
2021/04/10 10:08:07;;;;;;;8.02;2.08;;;11.30;64.80;;;;;;6216216;23;20047;-55
2021/04/10 10:10:38;;;;;;;3.13;1.95;;;11.20;64.60;;;;;;6215803;23;19997;-56
2021/04/10 10:13:13;;;;;;;6.28;1.52;;;11.20;64.60;;;;;;6215998;23;20419;-55
2021/04/10 10:15:39;;;;;;;2.00;1.63;;;11.30;64.80;;;;;;6216032;23;20358;-55
2021/04/10 10:18:19;;;;;;;2.78;1.67;;;11.30;64.80;;;;;;6216182;23;20000;-55
2021/04/10 10:21:08;;;;;;;4.82;1.80;;;11.30;64.80;;;;;;6216148;23;20019;-55
2021/04/10 10:23:38;;;;;;;3.38;1.90;;;11.30;64.90;;;;;;6216074;23;20027;-55
2021/04/10 10:26:09;;;;;;;7.63;1.93;;;11.30;64.90;;;;;;6215726;23;20004;-55
2021/04/10 10:28:37;;;;;;;2.75;1.50;;;11.30;64.90;;;;;;6215471;23;20006;-56
2021/04/10 10:31:09;;;;;;;3.80;2.10;;;11.40;64.80;;;;;;6215672;23;20033;-56
2021/04/10 10:33:35;;;;;;;1.23;1.10;;;11.40;64.80;;;;;;6216033;23;20005;-54
2021/04/10 10:36:01;;;;;;;3.50;1.42;;;11.40;64.70;;;;;;6216268;23;20016;-54
2021/04/10 10:38:33;;;;;;;6.47;1.55;;;11.50;64.60;;;;;;6215098;23;20000;-54
2021/04/10 10:40:59;;;;;;;0.88;0.85;;;11.50;64.50;;;;;;6215435;23;20277;-54
2021/04/10 10:43:26;;;;;;;1.27;1.13;;;11.50;64.30;;;;;;6215716;23;20047;-54
2021/04/10 10:45:53;;;;;;;2.15;1.48;;;11.60;64.80;;;;;;6215976;23;20019;-55
2021/04/10 10:48:22;;;;;;;3.35;0.95;;;11.60;63.80;;;;;;6215346;23;20004;-55
2021/04/10 10:50:50;;;;;;;3.70;1.60;;;11.60;63.50;;;;;;6215922;23;20000;-54
2021/04/10 10:53:24;;;;;;;3.22;1.27;;;11.70;63.30;;;;;;6215459;23;20266;-54
2021/04/10 10:55:57;;;;;;;1.55;1.08;;;11.70;63.10;;;;;;6216057;23;20139;-54
2021/04/10 10:58:23;;;;;;;1.27;1.23;;;11.80;63.30;;;;;;6215611;23;20295;-54
2021/04/10 11:00:52;;;;;;;2.13;1.88;;;11.80;63.00;;;;;;6215502;23;20005;-53
2021/04/10 11:03:22;;;;;;;4.60;1.63;;;11.80;63.70;;;;;;6212722;23;20000;-54
2021/04/10 11:05:49;;;;;;;4.13;1.33;;;11.80;63.00;;;;;;6215835;23;20379;-54
2021/04/10 11:08:17;;;;;;;1.60;1.30;;;11.90;63.40;;;;;;6215441;23;20008;-54
2021/04/10 11:10:45;;;;;;;2.58;1.10;;;11.90;62.50;;;;;;6215085;23;20075;-53
2021/04/10 11:13:13;;;;;;;3.55;1.15;;;11.90;62.40;;;;;;6215305;23;20011;-54
2021/04/10 11:15:41;;;;;;;1.92;1.38;;;12.00;62.20;;;;;;6215630;23;20009;-54
2021/04/10 11:18:23;;;;;;;2.60;0.88;;;12.00;61.40;;;;;;6215546;23;20075;-54
2021/04/10 11:20:48;;;;;;;2.38;1.23;;;12.00;61.30;;;;;;6215770;23;20370;-54
2021/04/10 11:23:14;;;;;;;4.55;1.20;;;12.00;61.50;;;;;;6215736;23;20067;-54
2021/04/10 11:25:49;;;;;;;6.47;1.67;;;12.10;61.60;;;;;;6215769;23;20304;-54
2021/04/10 11:28:32;;;;;;;4.78;1.05;;;12.10;61.40;;;;;;6215896;23;20004;-54
2021/04/10 11:31:08;;;;;;;2.15;1.40;;;12.10;61.00;;;;;;6215951;23;20016;-54
2021/04/10 11:33:35;;;;;;;6.50;2.20;;;12.20;60.70;;;;;;6215917;23;20420;-54
2021/04/10 11:36:01;;;;;;;4.35;1.75;;;12.30;60.80;;;;;;6215933;23;20059;-54
2021/04/10 11:38:27;;;;;;;0.82;0.65;;;12.30;60.70;;;;;;6215080;23;20365;-53
2021/04/10 11:40:53;;;;;;;2.80;1.70;;;12.40;60.60;;;;;;6215538;23;20404;-54
2021/04/10 11:43:19;;;;;;;4.57;1.67;;;12.50;60.40;;;;;;6215854;23;20129;-54
2021/04/10 11:45:51;;;;;;;5.13;2.00;;;12.50;59.60;;;;;;6215766;23;20071;-54
2021/04/10 11:48:24;;;;;;;6.35;2.72;;;12.50;59.70;;;;;;6215418;23;20478;-54
2021/04/10 11:50:53;;;;;;;2.65;1.63;;;12.50;59.80;;;;;;6215239;23;19997;-54
2021/04/10 11:53:26;;;;;;;6.93;2.00;;;12.50;60.00;;;;;;6215804;23;20074;-55
2021/04/10 11:55:53;;;;;;;7.55;2.45;;;12.60;59.60;;;;;;6215508;23;20013;-55
2021/04/10 11:58:36;;;;;;;2.08;1.38;;;12.50;59.60;;;;;;6215457;23;20085;-55
2021/04/10 12:01:12;;;;;;;2.83;1.50;;;12.60;59.20;;;;;;6214984;23;20076;-55
2021/04/10 12:03:52;;;;;;;5.85;1.48;;;12.60;59.20;;;;;;6215629;23;20079;-55
2021/04/10 12:06:40;;;;;;;0.80;0.63;;;12.60;59.00;;;;;;6215263;23;20031;-55
2021/04/10 12:09:07;;;;;;;3.53;1.90;;;12.60;58.90;;;;;;6206498;23;20323;-55
2021/04/10 12:11:34;;;;;;;6.68;2.03;;;12.60;58.80;;;;;;6215522;23;20004;-55
2021/04/10 12:14:01;;;;;;;8.02;2.60;;;12.60;58.80;;;;;;6215741;23;20003;-55
2021/04/10 12:16:27;;;;;;;1.20;1.10;;;12.70;58.90;;;;;;6215532;23;20019;-55
2021/04/10 12:18:52;;;;;;;4.47;1.90;;;12.70;59.00;;;;;;6214944;23;20008;-55
2021/04/10 12:21:18;;;;;;;2.08;1.67;;;12.70;58.90;;;;;;6216196;23;20027;-55
2021/04/10 12:23:44;;;;;;;5.60;1.50;;;12.80;58.90;;;;;;6215337;23;20012;-55
2021/04/10 12:26:10;;;;;;;3.22;1.75;;;12.80;58.80;;;;;;6215930;23;20015;-55
2021/04/10 12:28:36;;;;;;;4.47;1.40;;;12.90;58.90;;;;;;6215471;23;20288;-55
2021/04/10 12:31:03;;;;;;;7.63;1.63;;;12.90;59.00;;;;;;6214981;23;20397;-54
2021/04/10 12:33:29;;;;;;;4.32;1.83;;;13.00;58.90;;;;;;6215649;23;20008;-55
2021/04/10 12:35:57;;;;;;;6.95;2.00;;;13.00;58.80;;;;;;6216325;23;20032;-55
2021/04/10 12:38:24;;;;;;;2.25;1.60;;;13.10;58.90;;;;;;6216854;23;20400;-55
2021/04/10 12:40:49;;;;;;;6.38;1.60;;;13.10;58.70;;;;;;6217298;23;20058;-55
2021/04/10 12:43:15;;;;;;;4.45;1.50;;;13.10;58.70;;;;;;6216773;23;20091;-55
2021/04/10 12:45:41;;;;;;;1.73;1.40;;;13.10;58.70;;;;;;6216963;23;20001;-55
2021/04/10 12:48:06;;;;;;;2.22;1.38;;;13.10;58.40;;;;;;6217551;23;20015;-55
2021/04/10 12:50:32;;;;;;;1.45;1.23;;;13.10;58.50;;;;;;6216459;23;20495;-55
2021/04/10 12:52:58;;;;;;;1.45;1.05;;;13.20;58.30;;;;;;6216810;23;20100;-55